Check out our new PWSWeather beta!
PWSweather.com
Personal Weather Stations
Station Observations

MakarauRodneyNZ

Lat: -36.52421, Lon: 174.47572

Elevation: 606

Station Type: Davis VP2

http://kaiparaweather.dynu.net/index.php

High Low Average
Temperature 65.7°F18.7°C 52.6°F11.4°C 57.9°F14.4°C
Dew Point 58.6°F14.8°C 50.0°F10.0°C 53.3°F11.8°C
Winds 23.0 mph 37.0 kmh Calm Calm 6.0 mph S9.7 kmh S
Wind Gusts 34.5 mph55.5 kmh -- 9.0 mph14.5 kmh
Humidity 95% 68% 85%
Pressure 29.49 in998.6 mb 29.30 in992.2 mb -
Precipitation 0.24 in6.1 mm - -
Hour Temp Dew Point Humidity Winds Wind Gusts Pressure Precip Precip Rate Daily Precip Total
12:00 AM 53.9°F12.2°C 50.7°F10.4°C 89% Calm Calm -- 29.49 in998.6 mb - 0.00 in0.0 mm 0.00 in0.0 mm
12:10 AM 53.8°F12.1°C 50.9°F10.5°C 90% Calm Calm -- 29.49 in998.6 mb - 0.00 in0.0 mm 0.00 in0.0 mm
12:20 AM 53.7°F12.1°C 50.8°F10.4°C 90% Calm Calm -- 29.48 in998.3 mb - 0.00 in0.0 mm 0.00 in0.0 mm
12:30 AM 53.5°F11.9°C 50.7°F10.4°C 90% Calm Calm -- 29.48 in998.3 mb - 0.00 in0.0 mm 0.00 in0.0 mm
12:40 AM 53.3°F11.8°C 50.4°F10.2°C 90% Calm Calm -- 29.47 in998.0 mb - 0.00 in0.0 mm 0.00 in0.0 mm
12:50 AM 53.1°F11.7°C 50.2°F10.1°C 90% Calm Calm -- 29.46 in997.6 mb - 0.00 in0.0 mm 0.00 in0.0 mm
01:00 AM 53.0°F11.7°C 50.5°F10.3°C 91% 1.2 mph NE1.9 kmh NE -- 29.45 in997.3 mb - 0.00 in0.0 mm 0.00 in0.0 mm
01:10 AM 53.1°F11.7°C 50.5°F10.3°C 91% Calm Calm -- 29.45 in997.3 mb - 0.00 in0.0 mm 0.00 in0.0 mm
01:20 AM 52.8°F11.6°C 50.2°F10.1°C 91% Calm Calm -- 29.45 in997.3 mb - 0.00 in0.0 mm 0.00 in0.0 mm
01:30 AM 52.7°F11.5°C 50.2°F10.1°C 91% Calm Calm -- 29.44 in997.0 mb - 0.00 in0.0 mm 0.00 in0.0 mm
01:40 AM 52.6°F11.4°C 50.0°F10.0°C 91% Calm Calm -- 29.44 in997.0 mb - 0.00 in0.0 mm 0.00 in0.0 mm
01:50 AM 52.7°F11.5°C 50.1°F10.1°C 91% Calm Calm -- 29.44 in997.0 mb - 0.00 in0.0 mm 0.00 in0.0 mm
02:00 AM 52.8°F11.6°C 50.5°F10.3°C 92% Calm Calm -- 29.44 in997.0 mb - 0.00 in0.0 mm 0.00 in0.0 mm
02:10 AM 52.9°F11.6°C 50.6°F10.3°C 92% Calm Calm -- 29.43 in996.6 mb - 0.00 in0.0 mm 0.00 in0.0 mm
02:20 AM 52.8°F11.6°C 50.5°F10.3°C 92% Calm Calm -- 29.43 in996.6 mb - 0.00 in0.0 mm 0.00 in0.0 mm
02:30 AM 52.8°F11.6°C 50.5°F10.3°C 92% Calm Calm -- 29.43 in996.6 mb - 0.00 in0.0 mm 0.00 in0.0 mm
02:40 AM 53.0°F11.7°C 50.8°F10.4°C 92% Calm Calm -- 29.43 in996.6 mb - 0.00 in0.0 mm 0.00 in0.0 mm
02:50 AM 53.1°F11.7°C 50.9°F10.5°C 92% Calm Calm -- 29.42 in996.3 mb - 0.00 in0.0 mm 0.00 in0.0 mm
03:00 AM 53.3°F11.8°C 51.1°F10.6°C 92% Calm Calm -- 29.42 in996.3 mb - 0.00 in0.0 mm 0.00 in0.0 mm
03:10 AM 53.4°F11.9°C 51.1°F10.6°C 92% Calm Calm -- 29.41 in995.9 mb - 0.00 in0.0 mm 0.00 in0.0 mm
03:20 AM 53.4°F11.9°C 51.1°F10.6°C 92% Calm Calm -- 29.41 in995.9 mb - 0.00 in0.0 mm 0.00 in0.0 mm
03:30 AM 53.3°F11.8°C 51.0°F10.6°C 92% Calm Calm -- 29.40 in995.6 mb - 0.00 in0.0 mm 0.00 in0.0 mm
03:40 AM 53.3°F11.8°C 51.0°F10.6°C 92% Calm Calm -- 29.39 in995.3 mb - 0.00 in0.0 mm 0.00 in0.0 mm
03:50 AM 53.3°F11.8°C 51.0°F10.6°C 92% Calm Calm -- 29.39 in995.3 mb - 0.00 in0.0 mm 0.00 in0.0 mm
04:00 AM 53.3°F11.8°C 51.3°F10.7°C 93% Calm Calm -- 29.39 in995.3 mb - 0.00 in0.0 mm 0.00 in0.0 mm
04:10 AM 53.4°F11.9°C 51.4°F10.8°C 93% Calm Calm -- 29.39 in995.3 mb - 0.00 in0.0 mm 0.00 in0.0 mm
04:20 AM 53.6°F12.0°C 51.6°F10.9°C 93% Calm Calm -- 29.38 in994.9 mb - 0.00 in0.0 mm 0.00 in0.0 mm
04:30 AM 53.7°F12.1°C 51.7°F10.9°C 93% Calm Calm -- 29.37 in994.6 mb - 0.00 in0.0 mm 0.00 in0.0 mm
04:40 AM 53.7°F12.1°C 51.7°F10.9°C 93% Calm Calm -- 29.37 in994.6 mb - 0.00 in0.0 mm 0.00 in0.0 mm
04:50 AM 53.7°F12.1°C 51.7°F10.9°C 93% Calm Calm -- 29.37 in994.6 mb - 0.00 in0.0 mm 0.00 in0.0 mm
05:00 AM 53.9°F12.2°C 51.9°F11.1°C 93% Calm Calm -- 29.38 in994.9 mb - 0.01 in0.3 mm 0.01 in0.3 mm
05:10 AM 54.2°F12.3°C 52.2°F11.2°C 93% Calm Calm -- 29.38 in994.9 mb - 0.00 in0.0 mm 0.01 in0.3 mm
05:20 AM 54.4°F12.4°C 52.4°F11.3°C 93% Calm Calm -- 29.38 in994.9 mb - 0.00 in0.0 mm 0.01 in0.3 mm
05:30 AM 54.7°F12.6°C 53.0°F11.7°C 94% Calm Calm -- 29.38 in994.9 mb - 0.00 in0.0 mm 0.01 in0.3 mm
05:40 AM 55.0°F12.8°C 53.3°F11.8°C 94% Calm Calm -- 29.38 in994.9 mb - 0.00 in0.0 mm 0.01 in0.3 mm
05:50 AM 55.2°F12.9°C 53.5°F11.9°C 94% Calm Calm 4.6 mph7.4 kmh 29.38 in994.9 mb - 0.01 in0.3 mm 0.02 in0.5 mm
06:00 AM 55.4°F13.0°C 53.7°F12.1°C 94% Calm Calm -- 29.38 in994.9 mb - 0.02 in0.5 mm 0.02 in0.5 mm
06:10 AM 55.5°F13.1°C 53.8°F12.1°C 94% Calm Calm -- 29.38 in994.9 mb - 0.01 in0.3 mm 0.02 in0.5 mm
06:20 AM 55.5°F13.1°C 53.8°F12.1°C 94% Calm Calm -- 29.38 in994.9 mb - 0.00 in0.0 mm 0.02 in0.5 mm
06:30 AM 55.5°F13.1°C 53.8°F12.1°C 94% Calm Calm -- 29.37 in994.6 mb - 0.00 in0.0 mm 0.02 in0.5 mm
06:40 AM 55.4°F13.0°C 53.7°F12.1°C 94% Calm Calm -- 29.37 in994.6 mb - 0.00 in0.0 mm 0.02 in0.5 mm
06:50 AM 55.7°F13.2°C 54.0°F12.2°C 94% Calm Calm -- 29.37 in994.6 mb - 0.00 in0.0 mm 0.02 in0.5 mm
07:00 AM 55.7°F13.2°C 54.0°F12.2°C 94% Calm Calm -- 29.37 in994.6 mb - 0.00 in0.0 mm 0.02 in0.5 mm
07:10 AM 55.8°F13.2°C 54.1°F12.3°C 94% Calm Calm -- 29.37 in994.6 mb - 0.00 in0.0 mm 0.02 in0.5 mm
07:20 AM 56.0°F13.3°C 54.3°F12.4°C 94% Calm Calm -- 29.37 in994.6 mb - 0.00 in0.0 mm 0.02 in0.5 mm
07:30 AM 56.5°F13.6°C 54.8°F12.7°C 94% Calm Calm -- 29.37 in994.6 mb - 0.00 in0.0 mm 0.02 in0.5 mm
07:40 AM 57.1°F13.9°C 55.4°F13.0°C 94% Calm Calm -- 29.37 in994.6 mb - 0.00 in0.0 mm 0.02 in0.5 mm
07:50 AM 58.5°F14.7°C 57.1°F13.9°C 95% Calm Calm -- 29.37 in994.6 mb - 0.00 in0.0 mm 0.02 in0.5 mm
08:00 AM 59.3°F15.2°C 57.6°F14.2°C 94% Calm Calm -- 29.36 in994.2 mb - 0.00 in0.0 mm 0.02 in0.5 mm
08:10 AM 60.3°F15.7°C 58.3°F14.6°C 93% Calm Calm -- 29.36 in994.2 mb - 0.00 in0.0 mm 0.02 in0.5 mm
08:20 AM 61.6°F16.4°C 58.6°F14.8°C 90% Calm Calm -- 29.36 in994.2 mb - 0.00 in0.0 mm 0.02 in0.5 mm
08:30 AM 61.9°F16.6°C 57.3°F14.1°C 85% Calm Calm 1.2 mph1.9 kmh 29.36 in994.2 mb - 0.00 in0.0 mm 0.02 in0.5 mm
08:40 AM 63.3°F17.4°C 58.0°F14.4°C 83% Calm Calm -- 29.36 in994.2 mb - 0.00 in0.0 mm 0.02 in0.5 mm
08:50 AM 64.7°F18.2°C 57.3°F14.1°C 77% Calm Calm -- 29.35 in993.9 mb - 0.00 in0.0 mm 0.02 in0.5 mm
09:00 AM 65.3°F18.5°C 56.8°F13.8°C 74% 1.2 mph E1.9 kmh E 5.8 mph9.3 kmh 29.35 in993.9 mb - 0.00 in0.0 mm 0.02 in0.5 mm
09:10 AM 65.7°F18.7°C 57.2°F14.0°C 74% Calm Calm 4.6 mph7.4 kmh 29.35 in993.9 mb - 0.00 in0.0 mm 0.02 in0.5 mm
09:20 AM 64.5°F18.1°C 55.7°F13.2°C 73% 1.2 mph NE1.9 kmh NE 2.3 mph3.7 kmh 29.35 in993.9 mb - 0.00 in0.0 mm 0.02 in0.5 mm
09:30 AM 62.7°F17.1°C 55.4°F13.0°C 77% Calm Calm 2.3 mph3.7 kmh 29.34 in993.6 mb - 0.00 in0.0 mm 0.02 in0.5 mm
09:40 AM 61.8°F16.6°C 54.9°F12.7°C 78% Calm Calm -- 29.34 in993.6 mb - 0.00 in0.0 mm 0.02 in0.5 mm
09:50 AM 63.6°F17.6°C 56.6°F13.7°C 78% Calm Calm -- 29.33 in993.2 mb - 0.00 in0.0 mm 0.02 in0.5 mm
10:00 AM 62.9°F17.2°C 54.9°F12.7°C 75% Calm Calm -- 29.34 in993.6 mb - 0.02 in0.5 mm 0.04 in1.0 mm
10:10 AM 60.1°F15.6°C 53.6°F12.0°C 79% 1.2 mph N1.9 kmh N 13.8 mph22.2 kmh 29.34 in993.6 mb - 0.00 in0.0 mm 0.04 in1.0 mm
10:20 AM 59.6°F15.3°C 54.5°F12.5°C 83% Calm Calm -- 29.33 in993.2 mb - 0.00 in0.0 mm 0.04 in1.0 mm
10:30 AM 61.5°F16.4°C 56.6°F13.7°C 84% 5.8 mph NE9.3 kmh NE 12.7 mph20.4 kmh 29.33 in993.2 mb - 0.00 in0.0 mm 0.04 in1.0 mm
10:40 AM 59.5°F15.3°C 54.0°F12.2°C 82% Calm Calm -- 29.33 in993.2 mb - 0.00 in0.0 mm 0.04 in1.0 mm
10:50 AM 58.9°F14.9°C 54.4°F12.4°C 85% 1.2 mph NNW1.9 kmh NNW 5.8 mph9.3 kmh 29.33 in993.2 mb - 0.00 in0.0 mm 0.04 in1.0 mm
11:00 AM 60.9°F16.1°C 56.4°F13.6°C 85% 1.2 mph N1.9 kmh N 8.1 mph13.0 kmh 29.32 in992.9 mb - 0.00 in0.0 mm 0.04 in1.0 mm
11:10 AM 60.2°F15.7°C 54.7°F12.6°C 82% 2.3 mph NW3.7 kmh NW 10.4 mph16.7 kmh 29.32 in992.9 mb - 0.00 in0.0 mm 0.04 in1.0 mm
11:20 AM 61.4°F16.3°C 55.5°F13.1°C 81% 6.9 mph NW11.1 kmh NW 19.6 mph31.5 kmh 29.32 in992.9 mb - 0.00 in0.0 mm 0.04 in1.0 mm
11:30 AM 62.6°F17.0°C 54.9°F12.7°C 76% 6.9 mph NW11.1 kmh NW 11.5 mph18.5 kmh 29.32 in992.9 mb - 0.00 in0.0 mm 0.04 in1.0 mm
11:40 AM 63.0°F17.2°C 54.2°F12.3°C 73% 8.1 mph W13.0 kmh W 16.1 mph25.9 kmh 29.32 in992.9 mb - 0.00 in0.0 mm 0.04 in1.0 mm
11:50 AM 63.5°F17.5°C 54.7°F12.6°C 73% 9.2 mph NW14.8 kmh NW 19.6 mph31.5 kmh 29.32 in992.9 mb - 0.00 in0.0 mm 0.04 in1.0 mm
12:00 PM 61.6°F16.4°C 54.0°F12.2°C 76% 9.2 mph W14.8 kmh W 11.5 mph18.5 kmh 29.32 in992.9 mb - 0.01 in0.3 mm 0.05 in1.3 mm
12:10 PM 60.4°F15.8°C 54.5°F12.5°C 81% 8.1 mph NW13.0 kmh NW 11.5 mph18.5 kmh 29.32 in992.9 mb - 0.00 in0.0 mm 0.05 in1.3 mm
12:20 PM 61.9°F16.6°C 55.3°F12.9°C 79% 10.4 mph NW16.7 kmh NW 17.3 mph27.8 kmh 29.32 in992.9 mb - 0.00 in0.0 mm 0.05 in1.3 mm
12:30 PM 63.3°F17.4°C 54.2°F12.3°C 72% 11.5 mph NNW18.5 kmh NNW 19.6 mph31.5 kmh 29.31 in992.6 mb - 0.00 in0.0 mm 0.05 in1.3 mm
12:40 PM 63.9°F17.7°C 54.7°F12.6°C 72% 10.4 mph W16.7 kmh W 13.8 mph22.2 kmh 29.32 in992.9 mb - 0.00 in0.0 mm 0.05 in1.3 mm
12:50 PM 64.7°F18.2°C 55.5°F13.1°C 72% 8.1 mph W13.0 kmh W 13.8 mph22.2 kmh 29.32 in992.9 mb - 0.00 in0.0 mm 0.05 in1.3 mm
01:00 PM 64.8°F18.2°C 55.2°F12.9°C 71% 9.2 mph W14.8 kmh W 15.0 mph24.1 kmh 29.31 in992.6 mb - 0.00 in0.0 mm 0.05 in1.3 mm
01:10 PM 64.2°F17.9°C 54.6°F12.6°C 71% 9.2 mph W14.8 kmh W 13.8 mph22.2 kmh 29.31 in992.6 mb - 0.00 in0.0 mm 0.05 in1.3 mm
01:20 PM 63.3°F17.4°C 54.1°F12.3°C 72% 11.5 mph NW18.5 kmh NW 17.3 mph27.8 kmh 29.31 in992.6 mb - 0.00 in0.0 mm 0.05 in1.3 mm
01:30 PM 63.3°F17.4°C 54.5°F12.5°C 73% 10.4 mph WNW16.7 kmh WNW 15.0 mph24.1 kmh 29.31 in992.6 mb - 0.00 in0.0 mm 0.05 in1.3 mm
01:40 PM 63.4°F17.4°C 54.9°F12.7°C 74% 11.5 mph NW18.5 kmh NW 17.3 mph27.8 kmh 29.31 in992.6 mb - 0.00 in0.0 mm 0.05 in1.3 mm
01:50 PM 63.6°F17.6°C 54.8°F12.7°C 73% 12.7 mph NW20.4 kmh NW 21.9 mph35.2 kmh 29.31 in992.6 mb - 0.00 in0.0 mm 0.05 in1.3 mm
02:00 PM 64.2°F17.9°C 53.8°F12.1°C 69% 12.7 mph WNW20.4 kmh WNW 17.3 mph27.8 kmh 29.31 in992.6 mb - 0.00 in0.0 mm 0.05 in1.3 mm
02:10 PM 63.7°F17.6°C 54.5°F12.5°C 72% 10.4 mph NW16.7 kmh NW 13.8 mph22.2 kmh 29.31 in992.6 mb - 0.00 in0.0 mm 0.05 in1.3 mm
02:20 PM 63.5°F17.5°C 55.1°F12.8°C 74% 11.5 mph W18.5 kmh W 19.6 mph31.5 kmh 29.30 in992.2 mb - 0.00 in0.0 mm 0.05 in1.3 mm
02:30 PM 64.5°F18.1°C 53.7°F12.1°C 68% 13.8 mph NW22.2 kmh NW 17.3 mph27.8 kmh 29.30 in992.2 mb - 0.00 in0.0 mm 0.05 in1.3 mm
02:40 PM 64.2°F17.9°C 53.4°F11.9°C 68% 11.5 mph NW18.5 kmh NW 16.1 mph25.9 kmh 29.30 in992.2 mb - 0.00 in0.0 mm 0.05 in1.3 mm
02:50 PM 63.6°F17.6°C 54.4°F12.4°C 72% 10.4 mph NNW16.7 kmh NNW 16.1 mph25.9 kmh 29.30 in992.2 mb - 0.00 in0.0 mm 0.05 in1.3 mm
03:00 PM 62.6°F17.0°C 53.8°F12.1°C 73% 8.1 mph WNW13.0 kmh WNW 12.7 mph20.4 kmh 29.30 in992.2 mb - 0.00 in0.0 mm 0.05 in1.3 mm
03:10 PM 62.5°F16.9°C 53.7°F12.1°C 73% 10.4 mph NW16.7 kmh NW 18.4 mph29.6 kmh 29.30 in992.2 mb - 0.00 in0.0 mm 0.05 in1.3 mm
03:20 PM 62.2°F16.8°C 53.8°F12.1°C 74% 10.4 mph W16.7 kmh W 11.5 mph18.5 kmh 29.30 in992.2 mb - 0.00 in0.0 mm 0.05 in1.3 mm
03:30 PM 62.8°F17.1°C 53.7°F12.1°C 72% 9.2 mph WNW14.8 kmh WNW 16.1 mph25.9 kmh 29.30 in992.2 mb - 0.00 in0.0 mm 0.05 in1.3 mm
03:40 PM 62.4°F16.9°C 53.7°F12.1°C 73% 10.4 mph NW16.7 kmh NW 13.8 mph22.2 kmh 29.30 in992.2 mb - 0.00 in0.0 mm 0.05 in1.3 mm
03:50 PM 62.2°F16.8°C 54.1°F12.3°C 75% 8.1 mph W13.0 kmh W 11.5 mph18.5 kmh 29.30 in992.2 mb - 0.00 in0.0 mm 0.05 in1.3 mm
04:00 PM 62.4°F16.9°C 54.0°F12.2°C 74% 12.7 mph NW20.4 kmh NW 18.4 mph29.6 kmh 29.30 in992.2 mb - 0.00 in0.0 mm 0.05 in1.3 mm
04:10 PM 62.1°F16.7°C 53.3°F11.8°C 73% 4.6 mph NW7.4 kmh NW 16.1 mph25.9 kmh 29.30 in992.2 mb - 0.00 in0.0 mm 0.05 in1.3 mm
04:20 PM 61.7°F16.5°C 54.4°F12.4°C 77% 10.4 mph NW16.7 kmh NW 19.6 mph31.5 kmh 29.30 in992.2 mb - 0.00 in0.0 mm 0.05 in1.3 mm
04:30 PM 61.7°F16.5°C 53.7°F12.1°C 75% 9.2 mph NW14.8 kmh NW 19.6 mph31.5 kmh 29.30 in992.2 mb - 0.00 in0.0 mm 0.05 in1.3 mm
04:40 PM 60.8°F16.0°C 53.9°F12.2°C 78% 9.2 mph NNW14.8 kmh NNW 17.3 mph27.8 kmh 29.30 in992.2 mb - 0.01 in0.3 mm 0.06 in1.5 mm
04:50 PM 59.9°F15.5°C 55.0°F12.8°C 84% 8.1 mph W13.0 kmh W 12.7 mph20.4 kmh 29.30 in992.2 mb - 0.01 in0.3 mm 0.06 in1.5 mm
05:00 PM 59.5°F15.3°C 54.0°F12.2°C 82% 9.2 mph NW14.8 kmh NW 13.8 mph22.2 kmh 29.30 in992.2 mb - 0.00 in0.0 mm 0.06 in1.5 mm
05:10 PM 59.6°F15.3°C 53.7°F12.1°C 81% 11.5 mph NW18.5 kmh NW 18.4 mph29.6 kmh 29.30 in992.2 mb - 0.00 in0.0 mm 0.06 in1.5 mm
05:20 PM 59.8°F15.4°C 54.3°F12.4°C 82% 10.4 mph WNW16.7 kmh WNW 16.1 mph25.9 kmh 29.30 in992.2 mb - 0.00 in0.0 mm 0.06 in1.5 mm
05:30 PM 60.3°F15.7°C 54.1°F12.3°C 80% 12.7 mph NW20.4 kmh NW 19.6 mph31.5 kmh 29.30 in992.2 mb - 0.00 in0.0 mm 0.06 in1.5 mm
05:40 PM 60.2°F15.7°C 54.1°F12.3°C 80% 10.4 mph WNW16.7 kmh WNW 18.4 mph29.6 kmh 29.30 in992.2 mb - 0.00 in0.0 mm 0.06 in1.5 mm
05:50 PM 59.3°F15.2°C 53.2°F11.8°C 80% 11.5 mph NW18.5 kmh NW 18.4 mph29.6 kmh 29.30 in992.2 mb - 0.00 in0.0 mm 0.06 in1.5 mm
06:00 PM 58.8°F14.9°C 53.0°F11.7°C 81% 6.9 mph W11.1 kmh W 10.4 mph16.7 kmh 29.30 in992.2 mb - 0.00 in0.0 mm 0.06 in1.5 mm
06:10 PM 58.6°F14.8°C 53.1°F11.7°C 82% 10.4 mph NW16.7 kmh NW 26.5 mph42.6 kmh 29.30 in992.2 mb - 0.00 in0.0 mm 0.06 in1.5 mm
06:20 PM 58.5°F14.7°C 53.1°F11.7°C 82% 11.5 mph NW18.5 kmh NW 21.9 mph35.2 kmh 29.30 in992.2 mb - 0.00 in0.0 mm 0.06 in1.5 mm
06:30 PM 58.5°F14.7°C 53.0°F11.7°C 82% 8.1 mph W13.0 kmh W 12.7 mph20.4 kmh 29.30 in992.2 mb - 0.00 in0.0 mm 0.06 in1.5 mm
06:40 PM 58.2°F14.6°C 53.4°F11.9°C 84% 10.4 mph NW16.7 kmh NW 18.4 mph29.6 kmh 29.31 in992.6 mb - 0.00 in0.0 mm 0.06 in1.5 mm
06:50 PM 56.9°F13.8°C 52.4°F11.3°C 85% 9.2 mph NNW14.8 kmh NNW 16.1 mph25.9 kmh 29.32 in992.9 mb - 0.00 in0.0 mm 0.06 in1.5 mm
07:00 PM 56.1°F13.4°C 52.3°F11.3°C 87% 9.2 mph WSW14.8 kmh WSW 11.5 mph18.5 kmh 29.32 in992.9 mb - 0.00 in0.0 mm 0.06 in1.5 mm
07:10 PM 55.9°F13.3°C 52.1°F11.2°C 87% 10.4 mph WSW16.7 kmh WSW 13.8 mph22.2 kmh 29.31 in992.6 mb - 0.02 in0.5 mm 0.09 in2.3 mm
07:20 PM 55.9°F13.3°C 52.7°F11.5°C 89% 8.1 mph W13.0 kmh W 11.5 mph18.5 kmh 29.32 in992.9 mb - 0.00 in0.0 mm 0.09 in2.3 mm
07:30 PM 56.2°F13.4°C 53.0°F11.7°C 89% 11.5 mph WNW18.5 kmh WNW 19.6 mph31.5 kmh 29.31 in992.6 mb - 0.00 in0.0 mm 0.09 in2.3 mm
07:40 PM 55.8°F13.2°C 52.6°F11.4°C 89% 8.1 mph WSW13.0 kmh WSW 16.1 mph25.9 kmh 29.31 in992.6 mb - 0.00 in0.0 mm 0.09 in2.3 mm
07:50 PM 55.7°F13.2°C 52.5°F11.4°C 89% 4.6 mph WNW7.4 kmh WNW 13.8 mph22.2 kmh 29.32 in992.9 mb - 0.00 in0.0 mm 0.09 in2.3 mm
08:00 PM 55.5°F13.1°C 52.3°F11.3°C 89% 6.9 mph WNW11.1 kmh WNW 13.8 mph22.2 kmh 29.32 in992.9 mb - 0.00 in0.0 mm 0.09 in2.3 mm
08:10 PM 55.6°F13.1°C 52.4°F11.3°C 89% 9.2 mph WSW14.8 kmh WSW 12.7 mph20.4 kmh 29.31 in992.6 mb - 0.00 in0.0 mm 0.09 in2.3 mm
08:20 PM 55.9°F13.3°C 52.7°F11.5°C 89% 5.8 mph WSW9.3 kmh WSW 11.5 mph18.5 kmh 29.31 in992.6 mb - 0.02 in0.5 mm 0.11 in2.8 mm
08:30 PM 56.0°F13.3°C 53.1°F11.7°C 90% 10.4 mph W16.7 kmh W 23.0 mph37.0 kmh 29.31 in992.6 mb - 0.00 in0.0 mm 0.11 in2.8 mm
08:40 PM 55.3°F12.9°C 52.4°F11.3°C 90% 11.5 mph WNW18.5 kmh WNW 16.1 mph25.9 kmh 29.32 in992.9 mb - 0.06 in1.5 mm 0.17 in4.3 mm
08:50 PM 55.4°F13.0°C 52.8°F11.6°C 91% 12.7 mph W20.4 kmh W 19.6 mph31.5 kmh 29.32 in992.9 mb - 0.02 in0.5 mm 0.18 in4.6 mm
09:00 PM 55.3°F12.9°C 52.7°F11.5°C 91% 12.7 mph WSW20.4 kmh WSW 19.6 mph31.5 kmh 29.33 in993.2 mb - 0.00 in0.0 mm 0.18 in4.6 mm
09:10 PM 54.9°F12.7°C 52.0°F11.1°C 90% 15.0 mph W24.1 kmh W 27.6 mph44.4 kmh 29.34 in993.6 mb - 0.00 in0.0 mm 0.18 in4.6 mm
09:20 PM 54.7°F12.6°C 52.1°F11.2°C 91% 12.7 mph W20.4 kmh W 18.4 mph29.6 kmh 29.33 in993.2 mb - 0.00 in0.0 mm 0.18 in4.6 mm
09:30 PM 55.0°F12.8°C 52.4°F11.3°C 91% 12.7 mph W20.4 kmh W 15.0 mph24.1 kmh 29.33 in993.2 mb - 0.05 in1.3 mm 0.23 in5.8 mm
09:40 PM 55.1°F12.8°C 52.8°F11.6°C 92% 16.1 mph W25.9 kmh W 24.2 mph38.9 kmh 29.33 in993.2 mb - 0.00 in0.0 mm 0.23 in5.8 mm
09:50 PM 55.4°F13.0°C 53.1°F11.7°C 92% 16.1 mph WSW25.9 kmh WSW 21.9 mph35.2 kmh 29.34 in993.6 mb - 0.00 in0.0 mm 0.23 in5.8 mm
10:00 PM 55.5°F13.1°C 52.9°F11.6°C 91% 23.0 mph W37.0 kmh W 34.5 mph55.5 kmh 29.34 in993.6 mb - 0.00 in0.0 mm 0.23 in5.8 mm
10:10 PM 55.0°F12.8°C 52.4°F11.3°C 91% 8.1 mph WSW13.0 kmh WSW 10.4 mph16.7 kmh 29.33 in993.2 mb - 0.00 in0.0 mm 0.23 in5.8 mm
10:20 PM 54.7°F12.6°C 52.1°F11.2°C 91% 10.4 mph WSW16.7 kmh WSW 12.7 mph20.4 kmh 29.34 in993.6 mb - 0.01 in0.3 mm 0.24 in6.1 mm
10:30 PM 54.8°F12.7°C 52.6°F11.4°C 92% 9.2 mph WSW14.8 kmh WSW 11.5 mph18.5 kmh 29.34 in993.6 mb - 0.00 in0.0 mm 0.24 in6.1 mm
10:40 PM 54.8°F12.7°C 52.5°F11.4°C 92% 13.8 mph W22.2 kmh W 20.7 mph33.3 kmh 29.34 in993.6 mb - 0.00 in0.0 mm 0.24 in6.1 mm
10:50 PM 55.0°F12.8°C 52.4°F11.3°C 91% 17.3 mph W27.8 kmh W 25.3 mph40.7 kmh 29.34 in993.6 mb - 0.00 in0.0 mm 0.24 in6.1 mm
11:00 PM 55.3°F12.9°C 52.4°F11.3°C 90% 12.7 mph WNW20.4 kmh WNW 15.0 mph24.1 kmh 29.34 in993.6 mb - 0.00 in0.0 mm 0.28 in7.1 mm
11:10 PM 55.3°F12.9°C 52.1°F11.2°C 89% 10.4 mph WSW16.7 kmh WSW 19.6 mph31.5 kmh 29.33 in993.2 mb - 0.00 in0.0 mm 0.28 in7.1 mm
11:20 PM 55.9°F13.3°C 52.4°F11.3°C 88% 13.8 mph W22.2 kmh W 20.7 mph33.3 kmh 29.33 in993.2 mb - 0.00 in0.0 mm 0.28 in7.1 mm
11:30 PM 56.0°F13.3°C 52.5°F11.4°C 88% 13.8 mph NW22.2 kmh NW 20.7 mph33.3 kmh 29.34 in993.6 mb - 0.00 in0.0 mm 0.28 in7.1 mm
11:40 PM 55.7°F13.2°C 52.5°F11.4°C 89% 12.7 mph NW20.4 kmh NW 21.9 mph35.2 kmh 29.33 in993.2 mb - 0.00 in0.0 mm 0.28 in7.1 mm
11:50 PM 55.9°F13.3°C 52.7°F11.5°C 89% 12.7 mph W20.4 kmh W 17.3 mph27.8 kmh 29.34 in993.6 mb - 0.00 in0.0 mm 0.28 in7.1 mm